Dupree, South Dakota
Current Conditions -  °F | °C
As of 8:52 AM on Thursday 18 Dec 2014 (Local Time) from KMBG Reporting Station
Overcast Overcast  
Wind Chill: 10°   Ceiling: 500
Heat Index: 22°   Visibility: 7mi
Dew Point: 19°   Wind: 12mph
Humidity: 89%   Direction: 160°SSE
Pressure: 30.07"   Gusts: NA
Location:  45.05°N, 101.6°W
Report Text: KMBG 181552Z AUTO 16010KT 7SM OVC005 M06/M07 A3007 RMK AO2 SLP212 T10561072
Loading
Personal Weather Stations






























Interactive Weather Map New forecast layout! Learn more

10-Day Weather Forecast

Advertisements
Track Severe Weather on mobile